Barcelona Express — VRLX6 — position and weather

sailwx.info

Track history (hours):
 
Tides and Currents Weather Stations Pressure Air Temp Water Temp Dewpoint Dewpoint Depression Visibility Wind Speed Wind Dir Waves Ship Positions

Barcelona Express

Last reported at 2018-Apr-24 18:30 UTC. Time now 2018-Apr-24 18:35 UTC.
Position N 44°18' E 009°01'.

Length 228 m; draft 9.5 m.

Type: Ship (hazmat cat D). MMSI: 477694300.

Date/timePositionNaut miles runAvg speedWind from/ knotsBaromVisibWave heightAir tempDewpointWater temp
2018-Apr-24 18:30N 44°18' E 009°01'0 0.3
2018-Apr-24 18:00N 44°18' E 009°01'0 0.3
2018-Apr-24 17:30N 44°18' E 009°01'0 0.3
2018-Apr-24 17:00N 44°18' E 009°02'0 0.3
2018-Apr-24 16:30N 44°18' E 009°02'0 0.4
2018-Apr-24 16:00N 44°18' E 009°02'0 0.4
2018-Apr-24 15:30N 44°19' E 009°02'0 0.5
2018-Apr-24 15:00N 44°19' E 009°03'0 0.2
2018-Apr-24 14:30N 44°19' E 009°03'0 0.2
2018-Apr-24 14:00N 44°19' E 009°03'0 0.2
2018-Apr-24 13:30N 44°19' E 009°03'0 0.4
2018-Apr-24 13:00N 44°18' E 009°03'0 0.5
2018-Apr-24 12:30N 44°18' E 009°03'0 0.5
2018-Apr-24 12:00N 44°18' E 009°03'0 0.5
2018-Apr-24 11:30N 44°18' E 009°04'0 0.5
2018-Apr-24 11:00N 44°18' E 009°04'0 0.5
2018-Apr-24 10:30N 44°18' E 009°04'0 0.4
2018-Apr-24 10:00N 44°17' E 009°04'2 3.3
2018-Apr-24 09:30N 44°16' E 009°02'611.5
2018-Apr-24 09:00N 44°11' E 009°04'612.0
2018-Apr-24 08:30N 44°05' E 009°07'611.9
2018-Apr-24 08:00N 43°60' E 009°10'611.6
2018-Apr-24 07:30N 43°55' E 009°15'612.0
2018-Apr-24 07:00N 43°51' E 009°21'611.9
2018-Apr-24 06:30N 43°47' E 009°27'611.9
2018-Apr-24 06:00N 43°43' E 009°33'612.1
2018-Apr-24 05:30N 43°39' E 009°39'612.1
2018-Apr-24 05:00N 43°34' E 009°45'611.8
2018-Apr-24 04:30N 43°31' E 009°52'611.7
2018-Apr-24 04:00N 43°30' E 009°60'611.9
2018-Apr-24 03:30N 43°30' E 010°08'510.2
2018-Apr-24 03:00N 43°32' E 010°15'3 6.4
2018-Apr-24 02:30N 43°34' E 010°18'1 2.0
2018-Apr-24 02:00N 43°35' E 010°18'0 0.0
2018-Apr-24 01:30N 43°35' E 010°18'0 0.0
2018-Apr-24 01:00N 43°35' E 010°18'0 0.0
2018-Apr-24 00:30N 43°35' E 010°18'0 0.0
2018-Apr-24 00:00N 43°35' E 010°18'0 0.0
2018-Apr-23 23:30N 43°35' E 010°18'0 0.0
2018-Apr-23 23:00N 43°35' E 010°18'0 0.1
2018-Apr-23 22:30N 43°35' E 010°18'0 0.0
2018-Apr-23 22:00N 43°35' E 010°18'0 0.0
2018-Apr-23 21:30N 43°35' E 010°18'0 0.0
2018-Apr-23 21:00N 43°35' E 010°18'0 0.0
2018-Apr-23 20:30N 43°35' E 010°18'0 0.0
2018-Apr-23 20:00N 43°35' E 010°18'0 0.0
2018-Apr-23 19:30N 43°35' E 010°18'0 0.1
2018-Apr-23 19:00N 43°35' E 010°18'0 0.0
2018-Apr-23 18:30N 43°35' E 010°18'0 0.0
2018-Apr-23 18:00N 43°35' E 010°18'0 0.0
2018-Apr-23 17:30N 43°35' E 010°18'0 0.0
2018-Apr-23 17:00N 43°35' E 010°18'0 0.0
2018-Apr-23 16:30N 43°35' E 010°18'0 0.0
2018-Apr-23 16:00N 43°35' E 010°18'0 0.0
2018-Apr-23 15:27N 43°35' E 010°18'0 0.0
2018-Apr-23 15:00N 43°35' E 010°18'0 0.0
2018-Apr-23 14:30N 43°35' E 010°18'0 0.0
2018-Apr-23 14:00N 43°35' E 010°18'0 0.0
2018-Apr-23 13:30N 43°35' E 010°18'0 0.0
2018-Apr-23 13:00N 43°35' E 010°18'0 0.0
2018-Apr-23 12:30N 43°35' E 010°18'0 0.0
2018-Apr-23 11:57N 43°35' E 010°18'0 0.0
2018-Apr-23 11:30N 43°35' E 010°18'0 0.0
2018-Apr-23 11:00N 43°35' E 010°18'0 0.0
2018-Apr-23 10:30N 43°35' E 010°18'0 0.1
2018-Apr-23 10:00N 43°35' E 010°18'0 0.0
2018-Apr-23 09:30N 43°35' E 010°18'0 0.0
2018-Apr-23 09:00N 43°35' E 010°18'0 0.0
2018-Apr-23 08:30N 43°35' E 010°18'0 0.0
2018-Apr-23 08:00N 43°35' E 010°18'1 1.4
2018-Apr-23 07:30N 43°34' E 010°18'3 6.3
2018-Apr-23 07:00N 43°31' E 010°16'2 3.8
2018-Apr-23 06:30N 43°30' E 010°14'4 7.5
2018-Apr-23 06:00N 43°27' E 010°12'3 5.8
2018-Apr-23 05:30N 43°24' E 010°10'612.0
2018-Apr-23 05:00N 43°18' E 010°08'815.9
2018-Apr-23 04:30N 43°11' E 010°05'815.9
2018-Apr-23 04:00N 43°03' E 010°02'816.0
2018-Apr-23 03:30N 42°55' E 009°60'815.9
2018-Apr-23 03:00N 42°47' E 009°57'815.9
2018-Apr-23 02:30N 42°39' E 009°55'815.8
2018-Apr-23 02:00N 42°32' E 009°55'815.6
2018-Apr-23 01:30N 42°24' E 009°56'815.5
2018-Apr-23 01:00N 42°16' E 009°55'815.8
2018-Apr-23 00:30N 42°08' E 009°55'815.7
2018-Apr-23 00:01N 42°00' E 009°55'815.9
2018-Apr-22 23:30N 41°52' E 009°56'815.9
2018-Apr-22 22:59N 41°44' E 009°56'815.7
2018-Apr-22 22:29N 41°36' E 009°57'7315.6
2018-Apr-22 17:50N 40°24' E 009°58'515.9
2018-Apr-22 17:30N 40°18' E 009°57'7515.9
2018-Apr-22 12:47N 39°04' E 009°40'415.7
2018-Apr-22 12:30N 39°01' E 009°36'713.4
2018-Apr-22 12:00N 38°59' E 009°28'815.6
2018-Apr-22 11:30N 39°02' E 009°19'915.9
2018-Apr-22 10:58N 39°06' E 009°09'510.1
2018-Apr-22 10:28N 39°10' E 009°06'3 6.1
2018-Apr-22 09:59N 39°13' E 009°04'0 0.0
2018-Apr-22 09:29N 39°13' E 009°04'0 0.0
2018-Apr-22 08:59N 39°13' E 009°04'0 0.0
2018-Apr-22 08:29N 39°13' E 009°04'0 0.0
2018-Apr-22 07:59N 39°13' E 009°04'0 0.0
2018-Apr-22 07:29N 39°13' E 009°04'0 0.0
2018-Apr-22 06:59N 39°13' E 009°04'0 0.0
2018-Apr-22 06:29N 39°13' E 009°04'0 0.0
2018-Apr-22 05:59N 39°13' E 009°04'0 0.0
2018-Apr-22 05:30N 39°13' E 009°04'0 0.0
2018-Apr-22 05:00N 39°13' E 009°04'0 0.0
2018-Apr-22 04:30N 39°13' E 009°04'0 0.9
2018-Apr-22 04:00N 39°13' E 009°04'3 5.6
2018-Apr-22 03:29N 39°11' E 009°06'1 2.7
2018-Apr-22 03:00N 39°10' E 009°06'2 4.8
2018-Apr-22 02:30N 39°07' E 009°06'3 7.1
2018-Apr-22 02:00N 39°04' E 009°08'4 7.9
2018-Apr-22 01:30N 39°00' E 009°07'713.3
2018-Apr-22 00:58N 38°54' E 009°02'714.9
2018-Apr-22 00:30N 38°48' E 008°57'715.2
2018-Apr-22 00:00N 38°46' E 008°48'2217.0
2018-Apr-21 22:44N 38°47' E 008°20'22117.1
2018-Apr-21 09:50N 39°00' E 003°37'617.8
2018-Apr-21 09:29N 39°01' E 003°29'817.8
2018-Apr-21 09:00N 39°01' E 003°18'917.6
2018-Apr-21 08:29N 39°01' E 003°06'817.6
2018-Apr-21 08:00N 39°02' E 002°55'917.9
2018-Apr-21 07:30N 39°04' E 002°44'917.5
2018-Apr-21 07:00N 39°06' E 002°33'1117.6
2018-Apr-21 06:22N 39°09' E 002°19'11717.5
2018-Apr-20 23:40N 39°36' W 000°09'314.8
2018-Apr-20 23:30N 39°37' W 000°12'2 3.3
2018-Apr-20 23:00N 39°39' W 000°13'0 0.0
2018-Apr-20 22:30N 39°39' W 000°13'0 0.0
2018-Apr-20 18:00N 39°39' W 000°13'0 0.0
2018-Apr-20 17:24N 39°39' W 000°13'0 0.0
2018-Apr-20 14:36N 39°39' W 000°13'0 0.0
2018-Apr-20 13:00N 39°39' W 000°13'0 0.0
2018-Apr-20 06:36N 39°39' W 000°13'0 0.1
2018-Apr-20 06:24N 39°39' W 000°13'0 0.0
2018-Apr-20 05:59N 39°39' W 000°13'0 0.4
2018-Apr-20 05:26N 39°39' W 000°13'2 4.1
2018-Apr-20 04:57N 39°37' W 000°11'3 7.1
2018-Apr-20 04:30N 39°34' W 000°09'611.3
2018-Apr-20 04:00N 39°29' W 000°06'9513.2
2018-Apr-19 20:49N 37°54' W 000°13'516.5
2018-Apr-19 20:29N 37°50' W 000°17'816.4
2018-Apr-19 20:00N 37°43' W 000°22'816.4
2018-Apr-19 19:30N 37°36' W 000°28'816.2
2018-Apr-19 19:00N 37°30' W 000°35'816.5
2018-Apr-19 18:30N 37°25' W 000°42'916.2
2018-Apr-19 17:59N 37°19' W 000°50'816.2
2018-Apr-19 17:30N 37°14' W 000°57'816.2
2018-Apr-19 17:00N 37°09' W 001°05'20816.2
2018-Apr-19 04:09N 36°00' W 005°10'317.6
2018-Apr-19 03:59N 35°60' W 005°13'918.1
2018-Apr-19 03:30N 35°58' W 005°24'6 0.3
2018-Apr-18 04:09N 35°54' W 005°30'4 1.7
2018-Apr-18 01:34N 35°56' W 005°34'0 2.1
2018-Apr-18 01:24N 35°56' W 005°34'2 5.9
2018-Apr-18 01:00N 35°58' W 005°33'2 3.6
2018-Apr-18 00:30N 35°59' W 005°31'1 2.6
2018-Apr-18 00:00N 35°60' W 005°30'2 3.5
2018-Apr-17 23:30N 36°00' W 005°27'2 4.1
2018-Apr-17 22:59N 36°01' W 005°25'3 5.6
2018-Apr-17 22:30N 36°04' W 005°23'2 4.2
2018-Apr-17 21:58N 36°06' W 005°25'0 0.1
2018-Apr-17 21:25N 36°06' W 005°25'0 0.0
2018-Apr-17 20:55N 36°05' W 005°25'0 0.0
2018-Apr-17 20:28N 36°05' W 005°25'0 0.0
2018-Apr-17 19:58N 36°05' W 005°25'0 0.0
2018-Apr-17 19:25N 36°05' W 005°25'0 0.0
2018-Apr-17 18:58N 36°05' W 005°25'0 0.0
2018-Apr-17 18:25N 36°05' W 005°25'0 0.1
2018-Apr-17 17:58N 36°06' W 005°25'0 0.1
2018-Apr-17 17:25N 36°06' W 005°25'0 0.2
2018-Apr-17 16:58N 36°06' W 005°25'0 0.0
2018-Apr-17 16:28N 36°06' W 005°25'0 0.1
2018-Apr-17 15:58N 36°06' W 005°25'0 0.1
2018-Apr-17 15:28N 36°06' W 005°25'18010.9
2018-Apr-16 22:58N 36°10' W 009°08'70119.3
2018-Apr-15 10:41N 37°23' W 023°38'319.1
2018-Apr-15 10:30N 37°23' W 023°42'919.1
2018-Apr-15 10:00N 37°24' W 023°54'1019.2
2018-Apr-15 09:30N 37°26' W 024°06'1019.5
2018-Apr-15 09:00N 37°27' W 024°18'1019.4
2018-Apr-15 08:31N 37°29' W 024°30'1019.3
2018-Apr-15 08:00N 37°31' W 024°42'1019.1
2018-Apr-15 07:30N 37°33' W 024°54'1019.5
2018-Apr-15 07:01N 37°34' W 025°06'1019.5
2018-Apr-15 06:30N 37°35' W 025°18'1019.7
2018-Apr-15 06:00N 37°36' W 025°31'1019.5
2018-Apr-15 05:31N 37°38' W 025°43'918.3
2018-Apr-15 05:00N 37°40' W 025°54'1019.2
2018-Apr-15 04:30N 37°42' W 026°06'4819.3
2018-Apr-15 01:59N 37°46' W 027°07'919.3
2018-Apr-15 01:30N 37°47' W 027°19'1019.4
2018-Apr-15 01:00N 37°47' W 027°31'1019.2
2018-Apr-15 00:30N 37°48' W 027°43'1019.2
2018-Apr-15 00:00N 37°49' W 027°55'919.0
2018-Apr-14 23:30N 37°50' W 028°07'919.0
2018-Apr-14 23:00N 37°50' W 028°19'1019.1
2018-Apr-14 22:30N 37°51' W 028°31'919.0
2018-Apr-14 22:01N 37°52' W 028°43'918.8
2018-Apr-14 21:30N 37°53' W 028°55'1019.3
2018-Apr-14 21:00N 37°54' W 029°07'1019.5
2018-Apr-14 20:30N 37°54' W 029°20'1019.3
2018-Apr-14 20:00N 37°55' W 029°32'1019.0
2018-Apr-14 19:30N 37°55' W 029°44'919.0
2018-Apr-14 19:00N 37°56' W 029°56'  
Track history (hours):
 
Tides and Currents Weather Stations Pressure Air Temp Water Temp Dewpoint Dewpoint Depression Visibility Wind Speed Wind Dir Waves Ship Positions

Barcelona Express

Last reported at 2018-Apr-24 18:30 UTC. Time now 2018-Apr-24 18:35 UTC.
Position N 44°18' E 009°01'.

Length 228 m; draft 9.5 m.

Type: Ship (hazmat cat D). MMSI: 477694300.

Date/timePositionNaut miles runAvg speedWind from/ knotsBaromVisibWave heightAir tempDewpointWater temp
2018-Apr-24 18:30N 44°18' E 009°01'0 0.3
2018-Apr-24 18:00N 44°18' E 009°01'0 0.3
2018-Apr-24 17:30N 44°18' E 009°01'0 0.3
2018-Apr-24 17:00N 44°18' E 009°02'0 0.3
2018-Apr-24 16:30N 44°18' E 009°02'0 0.4
2018-Apr-24 16:00N 44°18' E 009°02'0 0.4
2018-Apr-24 15:30N 44°19' E 009°02'0 0.5
2018-Apr-24 15:00N 44°19' E 009°03'0 0.2
2018-Apr-24 14:30N 44°19' E 009°03'0 0.2
2018-Apr-24 14:00N 44°19' E 009°03'0 0.2
2018-Apr-24 13:30N 44°19' E 009°03'0 0.4
2018-Apr-24 13:00N 44°18' E 009°03'0 0.5
2018-Apr-24 12:30N 44°18' E 009°03'0 0.5
2018-Apr-24 12:00N 44°18' E 009°03'0 0.5
2018-Apr-24 11:30N 44°18' E 009°04'0 0.5
2018-Apr-24 11:00N 44°18' E 009°04'0 0.5
2018-Apr-24 10:30N 44°18' E 009°04'0 0.4
2018-Apr-24 10:00N 44°17' E 009°04'2 3.3
2018-Apr-24 09:30N 44°16' E 009°02'611.5
2018-Apr-24 09:00N 44°11' E 009°04'612.0
2018-Apr-24 08:30N 44°05' E 009°07'611.9
2018-Apr-24 08:00N 43°60' E 009°10'611.6
2018-Apr-24 07:30N 43°55' E 009°15'612.0
2018-Apr-24 07:00N 43°51' E 009°21'611.9
2018-Apr-24 06:30N 43°47' E 009°27'611.9
2018-Apr-24 06:00N 43°43' E 009°33'612.1
2018-Apr-24 05:30N 43°39' E 009°39'612.1
2018-Apr-24 05:00N 43°34' E 009°45'611.8
2018-Apr-24 04:30N 43°31' E 009°52'611.7
2018-Apr-24 04:00N 43°30' E 009°60'611.9
2018-Apr-24 03:30N 43°30' E 010°08'510.2
2018-Apr-24 03:00N 43°32' E 010°15'3 6.4
2018-Apr-24 02:30N 43°34' E 010°18'1 2.0
2018-Apr-24 02:00N 43°35' E 010°18'0 0.0
2018-Apr-24 01:30N 43°35' E 010°18'0 0.0
2018-Apr-24 01:00N 43°35' E 010°18'0 0.0
2018-Apr-24 00:30N 43°35' E 010°18'0 0.0
2018-Apr-24 00:00N 43°35' E 010°18'0 0.0
2018-Apr-23 23:30N 43°35' E 010°18'0 0.0
2018-Apr-23 23:00N 43°35' E 010°18'0 0.1
2018-Apr-23 22:30N 43°35' E 010°18'0 0.0
2018-Apr-23 22:00N 43°35' E 010°18'0 0.0
2018-Apr-23 21:30N 43°35' E 010°18'0 0.0
2018-Apr-23 21:00N 43°35' E 010°18'0 0.0
2018-Apr-23 20:30N 43°35' E 010°18'0 0.0
2018-Apr-23 20:00N 43°35' E 010°18'0 0.0
2018-Apr-23 19:30N 43°35' E 010°18'0 0.1
2018-Apr-23 19:00N 43°35' E 010°18'0 0.0
2018-Apr-23 18:30N 43°35' E 010°18'0 0.0
2018-Apr-23 18:00N 43°35' E 010°18'0 0.0
2018-Apr-23 17:30N 43°35' E 010°18'0 0.0
2018-Apr-23 17:00N 43°35' E 010°18'0 0.0
2018-Apr-23 16:30N 43°35' E 010°18'0 0.0
2018-Apr-23 16:00N 43°35' E 010°18'0 0.0
2018-Apr-23 15:27N 43°35' E 010°18'0 0.0
2018-Apr-23 15:00N 43°35' E 010°18'0 0.0
2018-Apr-23 14:30N 43°35' E 010°18'0 0.0
2018-Apr-23 14:00N 43°35' E 010°18'0 0.0
2018-Apr-23 13:30N 43°35' E 010°18'0 0.0
2018-Apr-23 13:00N 43°35' E 010°18'0 0.0
2018-Apr-23 12:30N 43°35' E 010°18'0 0.0
2018-Apr-23 11:57N 43°35' E 010°18'0 0.0
2018-Apr-23 11:30N 43°35' E 010°18'0 0.0
2018-Apr-23 11:00N 43°35' E 010°18'0 0.0
2018-Apr-23 10:30N 43°35' E 010°18'0 0.1
2018-Apr-23 10:00N 43°35' E 010°18'0 0.0
2018-Apr-23 09:30N 43°35' E 010°18'0 0.0
2018-Apr-23 09:00N 43°35' E 010°18'0 0.0
2018-Apr-23 08:30N 43°35' E 010°18'0 0.0
2018-Apr-23 08:00N 43°35' E 010°18'1 1.4
2018-Apr-23 07:30N 43°34' E 010°18'3 6.3
2018-Apr-23 07:00N 43°31' E 010°16'2 3.8
2018-Apr-23 06:30N 43°30' E 010°14'4 7.5
2018-Apr-23 06:00N 43°27' E 010°12'3 5.8
2018-Apr-23 05:30N 43°24' E 010°10'612.0
2018-Apr-23 05:00N 43°18' E 010°08'815.9
2018-Apr-23 04:30N 43°11' E 010°05'815.9
2018-Apr-23 04:00N 43°03' E 010°02'816.0
2018-Apr-23 03:30N 42°55' E 009°60'815.9
2018-Apr-23 03:00N 42°47' E 009°57'815.9
2018-Apr-23 02:30N 42°39' E 009°55'815.8
2018-Apr-23 02:00N 42°32' E 009°55'815.6
2018-Apr-23 01:30N 42°24' E 009°56'815.5
2018-Apr-23 01:00N 42°16' E 009°55'815.8
2018-Apr-23 00:30N 42°08' E 009°55'815.7
2018-Apr-23 00:01N 42°00' E 009°55'815.9
2018-Apr-22 23:30N 41°52' E 009°56'815.9
2018-Apr-22 22:59N 41°44' E 009°56'815.7
2018-Apr-22 22:29N 41°36' E 009°57'7315.6
2018-Apr-22 17:50N 40°24' E 009°58'515.9
2018-Apr-22 17:30N 40°18' E 009°57'7515.9
2018-Apr-22 12:47N 39°04' E 009°40'415.7
2018-Apr-22 12:30N 39°01' E 009°36'713.4
2018-Apr-22 12:00N 38°59' E 009°28'815.6
2018-Apr-22 11:30N 39°02' E 009°19'915.9
2018-Apr-22 10:58N 39°06' E 009°09'510.1
2018-Apr-22 10:28N 39°10' E 009°06'3 6.1
2018-Apr-22 09:59N 39°13' E 009°04'0 0.0
2018-Apr-22 09:29N 39°13' E 009°04'0 0.0
2018-Apr-22 08:59N 39°13' E 009°04'0 0.0
2018-Apr-22 08:29N 39°13' E 009°04'0 0.0
2018-Apr-22 07:59N 39°13' E 009°04'0 0.0
2018-Apr-22 07:29N 39°13' E 009°04'0 0.0
2018-Apr-22 06:59N 39°13' E 009°04'0 0.0
2018-Apr-22 06:29N 39°13' E 009°04'0 0.0
2018-Apr-22 05:59N 39°13' E 009°04'0 0.0
2018-Apr-22 05:30N 39°13' E 009°04'0 0.0
2018-Apr-22 05:00N 39°13' E 009°04'0 0.0
2018-Apr-22 04:30N 39°13' E 009°04'0 0.9
2018-Apr-22 04:00N 39°13' E 009°04'3 5.6
2018-Apr-22 03:29N 39°11' E 009°06'1 2.7
2018-Apr-22 03:00N 39°10' E 009°06'2 4.8
2018-Apr-22 02:30N 39°07' E 009°06'3 7.1
2018-Apr-22 02:00N 39°04' E 009°08'4 7.9
2018-Apr-22 01:30N 39°00' E 009°07'713.3
2018-Apr-22 00:58N 38°54' E 009°02'714.9
2018-Apr-22 00:30N 38°48' E 008°57'715.2
2018-Apr-22 00:00N 38°46' E 008°48'2217.0
2018-Apr-21 22:44N 38°47' E 008°20'22117.1
2018-Apr-21 09:50N 39°00' E 003°37'617.8
2018-Apr-21 09:29N 39°01' E 003°29'817.8
2018-Apr-21 09:00N 39°01' E 003°18'917.6
2018-Apr-21 08:29N 39°01' E 003°06'817.6
2018-Apr-21 08:00N 39°02' E 002°55'917.9
2018-Apr-21 07:30N 39°04' E 002°44'917.5
2018-Apr-21 07:00N 39°06' E 002°33'1117.6
2018-Apr-21 06:22N 39°09' E 002°19'11717.5
2018-Apr-20 23:40N 39°36' W 000°09'314.8
2018-Apr-20 23:30N 39°37' W 000°12'2 3.3
2018-Apr-20 23:00N 39°39' W 000°13'0 0.0
2018-Apr-20 22:30N 39°39' W 000°13'0 0.0
2018-Apr-20 18:00N 39°39' W 000°13'0 0.0
2018-Apr-20 17:24N 39°39' W 000°13'0 0.0
2018-Apr-20 14:36N 39°39' W 000°13'0 0.0
2018-Apr-20 13:00N 39°39' W 000°13'0 0.0
2018-Apr-20 06:36N 39°39' W 000°13'0 0.1
2018-Apr-20 06:24N 39°39' W 000°13'0 0.0
2018-Apr-20 05:59N 39°39' W 000°13'0 0.4
2018-Apr-20 05:26N 39°39' W 000°13'2 4.1
2018-Apr-20 04:57N 39°37' W 000°11'3 7.1
2018-Apr-20 04:30N 39°34' W 000°09'611.3
2018-Apr-20 04:00N 39°29' W 000°06'9513.2
2018-Apr-19 20:49N 37°54' W 000°13'516.5
2018-Apr-19 20:29N 37°50' W 000°17'816.4
2018-Apr-19 20:00N 37°43' W 000°22'816.4
2018-Apr-19 19:30N 37°36' W 000°28'816.2
2018-Apr-19 19:00N 37°30' W 000°35'816.5
2018-Apr-19 18:30N 37°25' W 000°42'916.2
2018-Apr-19 17:59N 37°19' W 000°50'816.2
2018-Apr-19 17:30N 37°14' W 000°57'816.2
2018-Apr-19 17:00N 37°09' W 001°05'20816.2
2018-Apr-19 04:09N 36°00' W 005°10'317.6
2018-Apr-19 03:59N 35°60' W 005°13'918.1
2018-Apr-19 03:30N 35°58' W 005°24'6 0.3
2018-Apr-18 04:09N 35°54' W 005°30'4 1.7
2018-Apr-18 01:34N 35°56' W 005°34'0 2.1
2018-Apr-18 01:24N 35°56' W 005°34'2 5.9
2018-Apr-18 01:00N 35°58' W 005°33'2 3.6
2018-Apr-18 00:30N 35°59' W 005°31'1 2.6
2018-Apr-18 00:00N 35°60' W 005°30'2 3.5
2018-Apr-17 23:30N 36°00' W 005°27'2 4.1
2018-Apr-17 22:59N 36°01' W 005°25'3 5.6
2018-Apr-17 22:30N 36°04' W 005°23'2 4.2
2018-Apr-17 21:58N 36°06' W 005°25'0 0.1
2018-Apr-17 21:25N 36°06' W 005°25'0 0.0
2018-Apr-17 20:55N 36°05' W 005°25'0 0.0
2018-Apr-17 20:28N 36°05' W 005°25'0 0.0
2018-Apr-17 19:58N 36°05' W 005°25'0 0.0
2018-Apr-17 19:25N 36°05' W 005°25'0 0.0
2018-Apr-17 18:58N 36°05' W 005°25'0 0.0
2018-Apr-17 18:25N 36°05' W 005°25'0 0.1
2018-Apr-17 17:58N 36°06' W 005°25'0 0.1
2018-Apr-17 17:25N 36°06' W 005°25'0 0.2
2018-Apr-17 16:58N 36°06' W 005°25'0 0.0
2018-Apr-17 16:28N 36°06' W 005°25'0 0.1
2018-Apr-17 15:58N 36°06' W 005°25'0 0.1
2018-Apr-17 15:28N 36°06' W 005°25'18010.9
2018-Apr-16 22:58N 36°10' W 009°08'70119.3
2018-Apr-15 10:41N 37°23' W 023°38'319.1
2018-Apr-15 10:30N 37°23' W 023°42'919.1
2018-Apr-15 10:00N 37°24' W 023°54'1019.2
2018-Apr-15 09:30N 37°26' W 024°06'1019.5
2018-Apr-15 09:00N 37°27' W 024°18'1019.4
2018-Apr-15 08:31N 37°29' W 024°30'1019.3
2018-Apr-15 08:00N 37°31' W 024°42'1019.1
2018-Apr-15 07:30N 37°33' W 024°54'1019.5
2018-Apr-15 07:01N 37°34' W 025°06'1019.5
2018-Apr-15 06:30N 37°35' W 025°18'1019.7
2018-Apr-15 06:00N 37°36' W 025°31'1019.5
2018-Apr-15 05:31N 37°38' W 025°43'918.3
2018-Apr-15 05:00N 37°40' W 025°54'1019.2
2018-Apr-15 04:30N 37°42' W 026°06'4819.3
2018-Apr-15 01:59N 37°46' W 027°07'919.3
2018-Apr-15 01:30N 37°47' W 027°19'1019.4
2018-Apr-15 01:00N 37°47' W 027°31'1019.2
2018-Apr-15 00:30N 37°48' W 027°43'1019.2
2018-Apr-15 00:00N 37°49' W 027°55'919.0
2018-Apr-14 23:30N 37°50' W 028°07'919.0
2018-Apr-14 23:00N 37°50' W 028°19'1019.1
2018-Apr-14 22:30N 37°51' W 028°31'919.0
2018-Apr-14 22:01N 37°52' W 028°43'918.8
2018-Apr-14 21:30N 37°53' W 028°55'1019.3
2018-Apr-14 21:00N 37°54' W 029°07'1019.5
2018-Apr-14 20:30N 37°54' W 029°20'1019.3
2018-Apr-14 20:00N 37°55' W 029°32'1019.0
2018-Apr-14 19:30N 37°55' W 029°44'919.0
2018-Apr-14 19:00N 37°56' W 029°56'  

Dump ship's entire track history